createdAt,value
2018-06-10T00:01:14.903Z,21.41
2018-06-10T00:02:55.410Z,20.99
2018-06-10T00:04:36.724Z,20.65
2018-06-10T00:06:16.190Z,20.46
2018-06-10T00:08:01.695Z,20.35
2018-06-10T00:09:41.906Z,20.36
2018-06-10T00:11:21.242Z,20.66
2018-06-10T00:13:04.498Z,21.07
2018-06-10T00:14:58.646Z,21.16
2018-06-10T00:16:36.761Z,21.14
2018-06-10T00:18:19.160Z,21.23
2018-06-10T00:19:58.626Z,21.09
2018-06-10T00:21:38.635Z,21.03
2018-06-10T00:23:19.236Z,20.79
2018-06-10T00:24:59.186Z,20.44
2018-06-10T00:26:39.898Z,20.27
2018-06-10T00:28:34.492Z,20.26
2018-06-10T00:30:21.435Z,20.15
2018-06-10T00:32:02.108Z,20.15
2018-06-10T00:33:44.922Z,20.12
2018-06-10T00:35:25.503Z,20.18
2018-06-10T00:37:01.867Z,20.35
2018-06-10T00:38:39.979Z,20.55
2018-06-10T00:40:23.251Z,20.68
2018-06-10T00:42:03.892Z,20.72
2018-06-10T00:43:43.233Z,20.90
2018-06-10T00:45:25.773Z,21.16
2018-06-10T00:47:08.556Z,21.66
2018-06-10T00:48:46.462Z,21.99
2018-06-10T00:50:26.758Z,22.25
2018-06-10T00:52:03.716Z,22.43
2018-06-10T00:53:41.526Z,22.33
2018-06-10T00:55:18.988Z,22.34
2018-06-10T00:56:55.402Z,22.47
2018-06-10T00:58:33.861Z,22.68
2018-06-10T01:00:11.896Z,22.51
2018-06-10T01:01:50.166Z,22.44
2018-06-10T01:03:27.374Z,22.53
2018-06-10T01:05:04.590Z,22.65
2018-06-10T01:06:41.067Z,22.73
2018-06-10T01:08:18.235Z,22.71
2018-06-10T01:09:58.521Z,22.77
2018-06-10T01:11:35.812Z,22.82
2018-06-10T01:13:12.287Z,22.84
2018-06-10T01:14:48.643Z,23.04
2018-06-10T01:16:26.007Z,23.17
2018-06-10T01:18:02.627Z,23.48
2018-06-10T01:19:39.415Z,23.69
2018-06-10T01:21:16.426Z,23.71
2018-06-10T01:22:52.836Z,23.31
2018-06-10T01:24:29.323Z,22.77
2018-06-10T01:26:05.755Z,22.53
2018-06-10T01:27:42.136Z,22.38
2018-06-10T01:29:18.748Z,22.31
2018-06-10T01:30:55.999Z,22.20
2018-06-10T01:32:34.097Z,22.18
2018-06-10T01:34:12.570Z,22.37
2018-06-10T01:35:51.603Z,22.53
2018-06-10T01:37:28.365Z,22.52
2018-06-10T01:39:06.407Z,22.51
2018-06-10T01:40:45.423Z,22.67
2018-06-10T01:42:25.588Z,22.92
2018-06-10T01:44:02.462Z,23.09
2018-06-10T01:45:38.949Z,23.36
2018-06-10T01:47:15.399Z,23.58
2018-06-10T01:48:51.782Z,23.81
2018-06-10T01:50:28.487Z,23.93
2018-06-10T01:52:06.292Z,23.95
2018-06-10T01:53:42.763Z,23.97
2018-06-10T01:55:19.242Z,23.96
2018-06-10T01:56:55.574Z,23.95
2018-06-10T01:58:32.374Z,23.96
2018-06-10T02:00:08.816Z,23.89
2018-06-10T02:01:48.641Z,23.81
2018-06-10T02:03:25.804Z,23.77
2018-06-10T02:05:03.255Z,23.68
2018-06-10T02:06:40.185Z,23.43
2018-06-10T02:08:16.594Z,23.23
2018-06-10T02:09:54.201Z,23.48
2018-06-10T02:11:31.384Z,23.70
2018-06-10T02:13:09.089Z,23.80
2018-06-10T02:14:46.322Z,23.84
2018-06-10T02:16:22.954Z,23.85
2018-06-10T02:17:59.990Z,23.80
2018-06-10T02:19:36.958Z,23.72
2018-06-10T02:21:13.715Z,23.59
2018-06-10T02:22:50.851Z,23.36
2018-06-10T02:24:27.558Z,22.92
2018-06-10T02:26:04.550Z,22.40
2018-06-10T02:27:42.880Z,22.08
2018-06-10T02:29:19.171Z,21.88
2018-06-10T02:30:56.773Z,21.75
2018-06-10T02:32:32.945Z,21.84
2018-06-10T02:34:10.441Z,22.18
2018-06-10T02:35:49.453Z,22.58
2018-06-10T02:37:25.635Z,22.80
2018-06-10T02:39:02.381Z,23.00
2018-06-10T02:40:39.145Z,23.10
2018-06-10T02:42:16.549Z,23.28
2018-06-10T02:43:54.013Z,23.49
2018-06-10T02:45:31.167Z,23.63
2018-06-10T02:47:07.925Z,23.57
2018-06-10T02:48:44.221Z,23.61
2018-06-10T02:50:22.541Z,23.77
2018-06-10T02:52:00.105Z,23.92
2018-06-10T02:53:38.665Z,24.03
2018-06-10T02:55:16.121Z,24.10
2018-06-10T02:56:52.473Z,24.10
2018-06-10T02:58:28.908Z,24.06
2018-06-10T03:00:05.237Z,24.06
2018-06-10T03:01:42.449Z,24.11
2018-06-10T03:03:19.321Z,24.16
2018-06-10T03:04:59.429Z,24.17
2018-06-10T03:06:35.629Z,24.21
2018-06-10T03:08:13.519Z,24.29
2018-06-10T03:09:50.041Z,24.27
2018-06-10T03:11:26.595Z,24.08
2018-06-10T03:13:03.653Z,23.91
2018-06-10T03:14:40.850Z,23.66
2018-06-10T03:16:19.737Z,23.55
2018-06-10T03:17:56.442Z,23.60
2018-06-10T03:19:34.309Z,23.75
2018-06-10T03:21:10.476Z,23.92
2018-06-10T03:22:47.871Z,23.96
2018-06-10T03:24:24.232Z,23.90
2018-06-10T03:26:01.249Z,23.80
2018-06-10T03:27:37.721Z,23.87
2018-06-10T03:29:14.379Z,23.86
2018-06-10T03:30:50.745Z,24.11
2018-06-10T03:32:28.640Z,24.28
2018-06-10T03:34:04.944Z,24.33
2018-06-10T03:35:44.642Z,24.23
2018-06-10T03:37:21.064Z,24.18
2018-06-10T03:39:00.517Z,24.19
2018-06-10T03:40:37.279Z,24.21
2018-06-10T03:42:13.868Z,24.18
2018-06-10T03:43:50.065Z,23.88
2018-06-10T03:45:28.321Z,23.66
2018-06-10T03:47:04.469Z,23.44
2018-06-10T03:48:41.424Z,23.24
2018-06-10T03:50:18.056Z,23.01
2018-06-10T03:51:54.209Z,22.85
2018-06-10T03:53:30.453Z,22.78
2018-06-10T03:55:06.579Z,22.76
2018-06-10T03:56:44.626Z,22.77
2018-06-10T03:58:21.231Z,22.94
2018-06-10T03:59:57.396Z,23.16
2018-06-10T04:01:33.548Z,23.39
2018-06-10T04:03:09.345Z,23.50
2018-06-10T04:04:45.409Z,23.72
2018-06-10T04:06:22.154Z,23.95
2018-06-10T04:07:57.907Z,24.05
2018-06-10T04:09:33.994Z,24.05
2018-06-10T04:11:10.154Z,24.18
2018-06-10T04:12:46.342Z,24.23
2018-06-10T04:14:22.625Z,24.41
2018-06-10T04:15:58.700Z,24.48
2018-06-10T04:17:35.741Z,24.44
2018-06-10T04:19:14.164Z,24.18
2018-06-10T04:20:51.529Z,23.93
2018-06-10T04:22:27.993Z,23.78
2018-06-10T04:24:05.384Z,23.71
2018-06-10T04:25:42.513Z,23.86
2018-06-10T04:27:20.108Z,24.01
2018-06-10T04:28:57.027Z,24.15
2018-06-10T04:30:34.905Z,24.41
2018-06-10T04:32:11.549Z,24.32
2018-06-10T04:33:48.330Z,23.85
2018-06-10T04:35:24.537Z,23.41
2018-06-10T04:37:01.091Z,23.36
2018-06-10T04:38:38.960Z,23.33
2018-06-10T04:40:15.384Z,23.15
2018-06-10T04:41:52.189Z,23.20
2018-06-10T04:43:28.812Z,23.14
2018-06-10T04:45:08.416Z,22.81
2018-06-10T04:46:45.297Z,22.61
2018-06-10T04:48:21.439Z,22.56
2018-06-10T04:49:58.435Z,22.60
2018-06-10T04:51:35.043Z,22.79
2018-06-10T04:53:11.254Z,22.80
2018-06-10T04:54:48.667Z,22.89
2018-06-10T04:56:24.836Z,22.89
2018-06-10T04:58:01.289Z,22.86
2018-06-10T04:59:37.445Z,22.78
2018-06-10T05:01:15.015Z,22.76
2018-06-10T05:02:52.511Z,22.66
2018-06-10T05:04:28.917Z,22.77
2018-06-10T05:06:05.491Z,22.54
2018-06-10T05:07:42.183Z,22.32
2018-06-10T05:09:19.769Z,22.17
2018-06-10T05:10:55.988Z,22.08
2018-06-10T05:12:33.301Z,22.10
2018-06-10T05:14:11.178Z,22.22
2018-06-10T05:15:48.123Z,22.17
2018-06-10T05:17:24.965Z,22.17
2018-06-10T05:19:01.161Z,22.44
2018-06-10T05:20:37.709Z,22.67
2018-06-10T05:22:13.813Z,22.64
2018-06-10T05:23:50.677Z,22.54
2018-06-10T05:25:26.861Z,22.65
2018-06-10T05:27:03.651Z,22.58
2018-06-10T05:28:40.129Z,22.52
2018-06-10T05:30:18.669Z,22.69
2018-06-10T05:31:55.605Z,22.99
2018-06-10T05:33:31.537Z,23.15
2018-06-10T05:35:08.075Z,23.41
2018-06-10T05:36:45.090Z,23.38
2018-06-10T05:38:25.654Z,23.20
2018-06-10T05:40:02.227Z,23.11
2018-06-10T05:41:39.235Z,23.39
2018-06-10T05:43:17.498Z,23.48
2018-06-10T05:44:54.510Z,23.24
2018-06-10T05:46:30.785Z,23.30
2018-06-10T05:48:07.433Z,23.58
2018-06-10T05:49:43.718Z,23.91
2018-06-10T05:51:20.522Z,23.93
2018-06-10T05:52:56.524Z,24.26
2018-06-10T05:54:32.850Z,24.51
2018-06-10T05:56:08.802Z,24.66
2018-06-10T05:57:45.949Z,24.39
2018-06-10T05:59:23.434Z,24.41
2018-06-10T06:01:00.167Z,24.61
2018-06-10T06:02:36.305Z,23.95
2018-06-10T06:04:12.508Z,23.55
2018-06-10T06:05:50.390Z,23.49
2018-06-10T06:07:26.989Z,23.88
2018-06-10T06:09:02.784Z,24.28
2018-06-10T06:10:38.921Z,24.48
2018-06-10T06:12:15.185Z,24.69
2018-06-10T06:13:52.609Z,24.75
2018-06-10T06:15:30.865Z,24.82
2018-06-10T06:17:07.167Z,24.87
2018-06-10T06:18:43.360Z,25.05
2018-06-10T06:20:20.294Z,25.23
2018-06-10T06:21:56.536Z,25.27
2018-06-10T06:23:33.284Z,25.25
2018-06-10T06:25:09.717Z,25.25
2018-06-10T06:26:49.842Z,25.26
2018-06-10T06:28:29.225Z,25.28
2018-06-10T06:30:06.123Z,25.27
2018-06-10T06:31:42.773Z,25.24
2018-06-10T06:33:21.047Z,25.21
2018-06-10T06:34:58.069Z,25.25
2018-06-10T06:36:34.585Z,25.30
2018-06-10T06:38:11.958Z,25.32
2018-06-10T06:39:48.163Z,25.37
2018-06-10T06:41:24.258Z,25.45
2018-06-10T06:43:00.335Z,25.38
2018-06-10T06:44:39.390Z,25.38
2018-06-10T06:46:15.891Z,25.38
2018-06-10T06:47:53.306Z,25.35
2018-06-10T06:49:30.565Z,25.21
2018-06-10T06:51:07.621Z,25.35
2018-06-10T06:52:43.801Z,25.41
2018-06-10T06:54:19.581Z,25.43
2018-06-10T06:55:55.601Z,25.51
2018-06-10T06:57:31.938Z,25.49
2018-06-10T06:59:08.225Z,25.41
2018-06-10T07:00:45.380Z,25.43
2018-06-10T07:02:21.740Z,25.44
2018-06-10T07:03:57.911Z,25.44
2018-06-10T07:05:34.527Z,25.00
2018-06-10T07:07:10.729Z,24.72
2018-06-10T07:08:47.537Z,24.57
2018-06-10T07:10:26.506Z,24.93
2018-06-10T07:12:02.718Z,25.13
2018-06-10T07:13:39.506Z,25.31
2018-06-10T07:15:18.773Z,25.33
2018-06-10T07:16:55.120Z,25.37
2018-06-10T07:18:31.791Z,25.59
2018-06-10T07:20:09.325Z,25.78
2018-06-10T07:21:45.183Z,25.78
2018-06-10T07:23:21.526Z,25.72
2018-06-10T07:24:57.296Z,25.64
2018-06-10T07:26:33.770Z,25.43
2018-06-10T07:28:10.026Z,25.25
2018-06-10T07:29:46.628Z,25.08
2018-06-10T07:31:22.931Z,24.85
2018-06-10T07:33:00.708Z,24.57
2018-06-10T07:34:37.527Z,24.37
2018-06-10T07:36:15.353Z,24.31
2018-06-10T07:37:53.801Z,24.32
2018-06-10T07:39:31.324Z,24.34
2018-06-10T07:41:08.682Z,24.36
2018-06-10T07:42:46.159Z,24.46
2018-06-10T07:44:22.304Z,24.62
2018-06-10T07:45:59.856Z,24.70
2018-06-10T07:47:36.100Z,24.81
2018-06-10T07:49:17.059Z,24.88
2018-06-10T07:50:52.881Z,24.91
2018-06-10T07:52:29.995Z,24.91
2018-06-10T07:54:06.231Z,24.87
2018-06-10T07:55:43.750Z,24.87
2018-06-10T07:57:21.314Z,24.78
2018-06-10T07:58:57.653Z,24.66
2018-06-10T08:00:36.240Z,24.62
2018-06-10T08:02:12.916Z,24.52
2018-06-10T08:03:52.525Z,24.41
2018-06-10T08:05:28.749Z,24.24
2018-06-10T08:07:05.062Z,24.22
2018-06-10T08:08:41.667Z,24.23
2018-06-10T08:10:17.792Z,24.25
2018-06-10T08:11:54.013Z,24.23
2018-06-10T08:13:30.158Z,24.20
2018-06-10T08:15:06.494Z,24.23
2018-06-10T08:16:42.949Z,24.21
2018-06-10T08:18:21.545Z,24.25
2018-06-10T08:19:57.785Z,24.22
2018-06-10T08:21:35.313Z,24.17
2018-06-10T08:23:14.567Z,24.20
2018-06-10T08:24:54.694Z,24.21
2018-06-10T08:26:32.036Z,24.35
2018-06-10T08:28:08.597Z,24.52
2018-06-10T08:29:45.948Z,24.71
2018-06-10T08:31:29.353Z,24.84
2018-06-10T08:33:06.482Z,24.96
2018-06-10T08:34:43.201Z,24.98
2018-06-10T08:36:20.241Z,25.01
2018-06-10T08:37:57.393Z,24.92
2018-06-10T08:39:34.505Z,25.04
2018-06-10T08:41:12.325Z,25.16
2018-06-10T08:42:50.335Z,25.19
2018-06-10T08:44:27.321Z,25.08
2018-06-10T08:46:04.745Z,25.00
2018-06-10T08:47:41.264Z,24.85
2018-06-10T08:49:17.757Z,24.90
2018-06-10T08:50:54.240Z,25.02
2018-06-10T08:52:30.781Z,25.17
2018-06-10T08:54:07.013Z,25.35
2018-06-10T08:55:43.936Z,25.56
2018-06-10T08:57:20.323Z,25.76
2018-06-10T09:00:46.158Z,25.96
2018-06-10T09:02:23.513Z,26.05
2018-06-10T09:04:03.474Z,26.18
2018-06-10T09:05:40.625Z,26.36
2018-06-10T09:07:21.433Z,26.39
2018-06-10T09:09:01.671Z,26.50
2018-06-10T09:10:38.654Z,26.53
2018-06-10T09:12:15.253Z,26.41
2018-06-10T09:13:52.419Z,26.20
2018-06-10T09:15:29.213Z,26.16
2018-06-10T09:17:07.316Z,26.17
2018-06-10T09:18:46.106Z,26.34
2018-06-10T09:20:22.428Z,26.33
2018-06-10T09:22:01.556Z,26.42
2018-06-10T09:23:37.774Z,26.51
2018-06-10T09:25:14.949Z,26.40
2018-06-10T09:26:53.259Z,26.37
2018-06-10T09:28:30.126Z,26.31
2018-06-10T09:30:07.368Z,26.19
2018-06-10T09:31:45.445Z,26.31
2018-06-10T09:33:22.706Z,26.45
2018-06-10T09:35:00.176Z,26.77
2018-06-10T09:36:41.567Z,26.82
2018-06-10T09:38:20.522Z,26.81
2018-06-10T09:39:57.519Z,26.76
2018-06-10T09:41:34.542Z,26.69
2018-06-10T09:43:11.941Z,26.61
2018-06-10T09:44:49.601Z,26.52
2018-06-10T09:46:26.151Z,26.40
2018-06-10T09:48:04.640Z,26.30
2018-06-10T09:49:44.456Z,26.09
2018-06-10T09:51:21.190Z,25.90
2018-06-10T09:52:58.794Z,25.80
2018-06-10T09:54:40.795Z,25.75
2018-06-10T09:56:18.333Z,25.65
2018-06-10T09:57:55.633Z,25.56
2018-06-10T09:59:35.625Z,25.60
2018-06-10T10:01:13.275Z,25.59
2018-06-10T10:02:49.647Z,25.59
2018-06-10T10:04:26.849Z,25.71
2018-06-10T10:06:03.278Z,25.66
2018-06-10T10:07:51.455Z,25.64
2018-06-10T10:09:27.576Z,25.67
2018-06-10T10:11:04.900Z,25.63
2018-06-10T10:12:41.186Z,25.76
2018-06-10T10:14:19.425Z,25.97
2018-06-10T10:15:58.817Z,26.10
2018-06-10T10:17:36.617Z,26.26
2018-06-10T10:19:13.462Z,26.38
2018-06-10T10:21:02.108Z,26.42
2018-06-10T10:22:38.465Z,26.28
2018-06-10T10:24:15.665Z,26.22
2018-06-10T10:25:51.902Z,26.16
2018-06-10T10:27:28.294Z,26.18
2018-06-10T10:29:11.872Z,26.25
2018-06-10T10:30:49.419Z,26.52
2018-06-10T10:32:26.603Z,26.53
2018-06-10T10:34:05.309Z,26.62
2018-06-10T10:35:46.262Z,26.67
2018-06-10T10:37:23.247Z,26.83
2018-06-10T10:39:01.755Z,26.96
2018-06-10T10:40:38.700Z,27.04
2018-06-10T10:42:15.074Z,27.19
2018-06-10T10:43:52.433Z,27.38
2018-06-10T10:45:29.792Z,27.43
2018-06-10T10:47:08.560Z,27.08
2018-06-10T10:48:44.828Z,27.10
2018-06-10T10:50:25.962Z,27.64
2018-06-10T10:52:05.997Z,28.12
2018-06-10T10:53:44.264Z,28.17
2018-06-10T10:55:26.347Z,28.14
2018-06-10T10:57:04.186Z,28.23
2018-06-10T10:58:42.242Z,28.18
2018-06-10T11:00:22.809Z,28.00
2018-06-10T11:01:59.633Z,27.94
2018-06-10T11:03:36.021Z,27.75
2018-06-10T11:05:14.418Z,27.70
2018-06-10T11:06:54.290Z,27.55
2018-06-10T11:08:31.530Z,27.65
2018-06-10T11:10:09.870Z,27.76
2018-06-10T11:11:51.613Z,27.82
2018-06-10T11:15:14.502Z,28.13
2018-06-10T11:16:52.969Z,28.36
2018-06-10T11:18:29.994Z,28.37
2018-06-10T11:20:08.467Z,28.45
2018-06-10T11:21:44.761Z,28.58
2018-06-10T11:23:23.814Z,28.48
2018-06-10T11:25:03.107Z,28.31
2018-06-10T11:26:40.013Z,28.26
2018-06-10T11:28:16.988Z,28.11
2018-06-10T11:29:54.137Z,28.03
2018-06-10T11:31:33.567Z,27.99
2018-06-10T11:33:10.676Z,28.03
2018-06-10T11:34:46.968Z,27.85
2018-06-10T11:36:23.876Z,27.77
2018-06-10T11:38:01.161Z,27.79
2018-06-10T11:39:37.768Z,27.81
2018-06-10T11:41:14.689Z,27.87
2018-06-10T11:42:51.375Z,27.83
2018-06-10T11:44:29.967Z,27.57
2018-06-10T11:46:07.977Z,27.28
2018-06-10T11:47:45.965Z,27.26
2018-06-10T11:49:22.196Z,27.39
2018-06-10T11:50:59.423Z,27.44
2018-06-10T11:52:36.513Z,27.73
2018-06-10T11:54:14.444Z,27.88
2018-06-10T11:55:53.656Z,27.96
2018-06-10T11:57:32.347Z,27.98
2018-06-10T11:59:10.199Z,28.03
2018-06-10T12:00:47.424Z,28.14
2018-06-10T12:02:23.789Z,28.11
2018-06-10T12:04:01.298Z,28.25
2018-06-10T12:05:37.522Z,28.19
2018-06-10T12:07:14.306Z,28.34
2018-06-10T12:08:52.416Z,28.40
2018-06-10T12:10:30.696Z,28.21
2018-06-10T12:12:09.590Z,27.97
2018-06-10T12:13:47.745Z,27.87
2018-06-10T12:15:26.330Z,27.97
2018-06-10T12:17:03.098Z,28.15
2018-06-10T12:18:45.291Z,28.41
2018-06-10T12:20:23.552Z,28.50
2018-06-10T12:22:05.332Z,28.37
2018-06-10T12:23:43.223Z,28.47
2018-06-10T12:25:19.467Z,28.37
2018-06-10T12:26:56.614Z,28.20
2018-06-10T12:28:36.817Z,28.03
2018-06-10T12:30:18.426Z,27.84
2018-06-10T12:31:55.684Z,27.94
2018-06-10T12:33:34.602Z,28.06
2018-06-10T12:35:13.466Z,28.09
2018-06-10T12:36:56.651Z,28.14
2018-06-10T12:38:38.593Z,28.23
2018-06-10T12:40:18.725Z,28.20
2018-06-10T12:41:56.646Z,28.24
2018-06-10T12:43:34.653Z,28.11
2018-06-10T12:45:14.282Z,28.08
2018-06-10T12:46:52.722Z,28.11
2018-06-10T12:48:28.992Z,27.86
2018-06-10T12:50:08.889Z,27.52
2018-06-10T12:51:48.834Z,27.51
2018-06-10T12:54:51.800Z,27.50
2018-06-10T12:56:33.129Z,27.55
2018-06-10T12:58:14.357Z,27.63
2018-06-10T12:59:57.177Z,27.63
2018-06-10T13:01:37.525Z,27.72
2018-06-10T13:03:16.816Z,27.85
2018-06-10T13:04:59.071Z,28.07
2018-06-10T13:06:40.231Z,28.27
2018-06-10T13:08:21.423Z,28.30
2018-06-10T13:10:00.568Z,28.27
2018-06-10T13:11:39.585Z,28.30
2018-06-10T13:13:20.497Z,28.47
2018-06-10T13:15:01.274Z,28.59
2018-06-10T13:16:46.134Z,28.56
2018-06-10T13:18:26.412Z,28.44
2018-06-10T13:20:12.241Z,28.23
2018-06-10T13:21:52.158Z,28.37
2018-06-10T13:23:37.614Z,28.41
2018-06-10T13:25:17.658Z,28.33
2018-06-10T13:26:54.973Z,28.31
2018-06-10T13:28:48.387Z,28.37
2018-06-10T13:30:30.566Z,28.48
2018-06-10T13:32:12.293Z,28.41
2018-06-10T13:34:08.122Z,28.36
2018-06-10T13:35:51.091Z,27.98
2018-06-10T13:37:28.568Z,28.05
2018-06-10T13:39:08.902Z,28.22
2018-06-10T13:40:51.674Z,28.34
2018-06-10T13:42:31.304Z,28.40
2018-06-10T13:44:10.770Z,28.41
2018-06-10T13:45:51.315Z,28.26
2018-06-10T13:47:28.187Z,28.02
2018-06-10T13:49:09.509Z,27.94
2018-06-10T13:50:48.497Z,27.95
2018-06-10T13:52:28.490Z,27.95
2018-06-10T13:54:08.355Z,27.92
2018-06-10T13:55:48.078Z,27.96
2018-06-10T13:57:26.490Z,28.04
2018-06-10T13:59:03.525Z,27.95
2018-06-10T14:00:42.704Z,27.89
2018-06-10T14:02:21.537Z,27.91
2018-06-10T14:03:59.011Z,27.98
2018-06-10T14:05:38.829Z,28.01
2018-06-10T14:07:25.073Z,27.99
2018-06-10T14:09:03.487Z,27.99
2018-06-10T14:10:43.614Z,28.15
2018-06-10T14:12:21.961Z,28.36
2018-06-10T14:14:01.726Z,28.29
2018-06-10T14:15:40.609Z,28.26
2018-06-10T14:17:18.988Z,28.10
2018-06-10T14:18:57.060Z,28.07
2018-06-10T14:20:35.535Z,27.92
2018-06-10T14:22:11.709Z,27.85
2018-06-10T14:23:48.048Z,27.81
2018-06-10T14:25:27.734Z,27.82
2018-06-10T14:27:06.863Z,27.83
2018-06-10T14:28:46.076Z,27.67
2018-06-10T14:30:25.657Z,27.48
2018-06-10T14:32:09.244Z,27.53
2018-06-10T14:33:47.902Z,27.68
2018-06-10T14:35:32.872Z,27.61
2018-06-10T14:37:09.949Z,27.67
2018-06-10T14:38:57.458Z,27.69
2018-06-10T14:40:39.352Z,27.70
2018-06-10T14:42:19.195Z,27.72
2018-06-10T14:43:58.859Z,27.63
2018-06-10T14:45:44.188Z,27.53
2018-06-10T14:47:24.581Z,27.35
2018-06-10T14:49:01.439Z,27.39
2018-06-10T14:50:40.709Z,27.44
2018-06-10T14:52:19.744Z,27.64
2018-06-10T14:53:57.544Z,27.84
2018-06-10T14:55:36.336Z,28.07
2018-06-10T14:57:25.315Z,28.35
2018-06-10T14:59:03.764Z,28.66
2018-06-10T15:00:56.808Z,28.71
2018-06-10T15:02:43.628Z,28.73
2018-06-10T15:04:25.011Z,28.73
2018-06-10T15:06:15.380Z,28.86
2018-06-10T15:08:01.671Z,28.82
2018-06-10T15:09:45.309Z,28.51
2018-06-10T15:11:24.011Z,28.51
2018-06-10T15:13:09.589Z,28.61
2018-06-10T15:15:04.121Z,28.30
2018-06-10T15:16:41.337Z,28.22
2018-06-10T15:18:21.598Z,28.10
2018-06-10T15:19:58.220Z,28.03
2018-06-10T15:21:37.805Z,28.06
2018-06-10T15:23:17.501Z,28.03
2018-06-10T15:25:01.791Z,27.94
2018-06-10T15:26:42.497Z,27.99
2018-06-10T15:28:26.317Z,28.07
2018-06-10T15:30:07.490Z,28.29
2018-06-10T15:31:45.401Z,28.29
2018-06-10T15:35:07.282Z,28.12
2018-06-10T15:36:44.328Z,28.18
2018-06-10T15:38:22.590Z,28.09
2018-06-10T15:40:02.863Z,28.14
2018-06-10T15:41:44.496Z,28.32
2018-06-10T15:43:21.975Z,28.37
2018-06-10T15:45:04.277Z,28.48
2018-06-10T15:46:44.596Z,28.60
2018-06-10T15:48:23.222Z,28.42
2018-06-10T15:50:03.847Z,28.40
2018-06-10T15:51:47.242Z,28.25
2018-06-10T15:53:27.238Z,28.28
2018-06-10T15:55:06.410Z,28.37
2018-06-10T15:56:55.498Z,28.19
2018-06-10T15:58:38.022Z,28.27
2018-06-10T16:00:21.617Z,28.30
2018-06-10T16:02:05.604Z,28.36
2018-06-10T16:03:45.130Z,28.40
2018-06-10T16:05:24.615Z,28.29
2018-06-10T16:07:03.375Z,28.12
2018-06-10T16:08:39.800Z,28.15
2018-06-10T16:10:19.556Z,28.19
2018-06-10T16:11:56.067Z,28.32
2018-06-10T16:13:33.463Z,28.39
2018-06-10T16:15:14.353Z,28.28
2018-06-10T16:16:51.352Z,28.25
2018-06-10T16:18:28.344Z,28.06
2018-06-10T16:20:07.843Z,27.93
2018-06-10T16:21:51.687Z,27.87
2018-06-10T16:23:30.100Z,27.75
2018-06-10T16:25:09.036Z,27.80
2018-06-10T16:26:50.484Z,27.62
2018-06-10T16:28:31.224Z,27.57
2018-06-10T16:30:16.449Z,27.46
2018-06-10T16:33:56.310Z,27.45
2018-06-10T16:35:45.034Z,27.27
2018-06-10T16:37:22.685Z,27.29
2018-06-10T16:39:10.542Z,27.27
2018-06-10T16:40:47.866Z,27.35
2018-06-10T16:42:26.478Z,27.45
2018-06-10T16:44:04.811Z,27.50
2018-06-10T16:45:43.903Z,27.42
2018-06-10T16:47:40.622Z,27.44
2018-06-10T16:49:19.655Z,27.36
2018-06-10T16:50:57.860Z,27.26
2018-06-10T16:52:41.121Z,27.27
2018-06-10T16:54:18.694Z,27.43
2018-06-10T16:56:08.310Z,27.39
2018-06-10T16:57:59.194Z,27.36
2018-06-10T16:59:54.630Z,27.12
2018-06-10T17:01:36.550Z,27.07
2018-06-10T17:03:17.106Z,26.99
2018-06-10T17:04:56.238Z,27.03
2018-06-10T17:06:48.741Z,27.08
2018-06-10T17:08:33.813Z,27.03
2018-06-10T17:10:10.153Z,26.94
2018-06-10T17:11:48.453Z,26.99
2018-06-10T17:13:26.169Z,27.02
2018-06-10T17:15:05.764Z,26.99
2018-06-10T17:16:47.035Z,26.99
2018-06-10T17:18:26.497Z,26.81
2018-06-10T17:20:03.589Z,26.95
2018-06-10T17:21:45.015Z,27.01
2018-06-10T17:23:22.951Z,27.10
2018-06-10T17:25:01.628Z,26.88
2018-06-10T17:26:41.340Z,27.08
2018-06-10T17:28:59.869Z,27.30
2018-06-10T17:30:47.189Z,27.38
2018-06-10T17:32:30.165Z,27.43
2018-06-10T17:34:09.542Z,27.51
2018-06-10T17:35:50.552Z,27.48
2018-06-10T17:37:40.552Z,27.64
2018-06-10T17:39:21.286Z,27.73
2018-06-10T17:41:04.432Z,27.63
2018-06-10T17:42:45.366Z,27.40
2018-06-10T17:44:33.279Z,27.09
2018-06-10T17:46:12.935Z,27.11
2018-06-10T17:47:51.198Z,27.11
2018-06-10T17:49:29.535Z,26.95
2018-06-10T17:51:09.562Z,26.83
2018-06-10T17:52:50.588Z,26.90
2018-06-10T17:54:38.164Z,26.91
2018-06-10T17:56:20.674Z,27.06
2018-06-10T17:58:03.213Z,27.13
2018-06-10T18:01:53.517Z,27.04
2018-06-10T18:03:40.357Z,27.04
2018-06-10T18:05:28.816Z,27.16
2018-06-10T18:07:07.816Z,26.96
2018-06-10T18:08:47.853Z,27.04
2018-06-10T18:10:25.813Z,27.30
2018-06-10T18:12:04.305Z,27.35
2018-06-10T18:13:45.121Z,27.28
2018-06-10T18:15:22.269Z,27.07
2018-06-10T18:17:01.585Z,27.14
2018-06-10T18:18:40.761Z,27.12
2018-06-10T18:20:17.830Z,26.77
2018-06-10T18:21:57.401Z,26.67
2018-06-10T18:23:34.455Z,26.68
2018-06-10T18:25:12.640Z,26.71
2018-06-10T18:26:49.538Z,26.51
2018-06-10T18:28:33.674Z,26.65
2018-06-10T18:30:14.614Z,26.70
2018-06-10T18:31:52.737Z,26.57
2018-06-10T18:33:31.617Z,26.36
2018-06-10T18:35:09.627Z,26.36
2018-06-10T18:36:49.364Z,26.17
2018-06-10T18:38:32.934Z,26.13
2018-06-10T18:40:12.633Z,26.52
2018-06-10T18:41:52.064Z,26.67
2018-06-10T18:43:29.915Z,26.69
2018-06-10T18:45:40.506Z,26.67
2018-06-10T18:47:21.157Z,26.61
2018-06-10T18:49:01.539Z,26.48
2018-06-10T18:50:38.736Z,26.48
2018-06-10T18:52:18.505Z,26.65
2018-06-10T18:53:58.536Z,26.77
2018-06-10T18:55:37.462Z,26.72
2018-06-10T18:57:15.820Z,26.78
2018-06-10T18:58:55.929Z,26.83
2018-06-10T19:00:34.399Z,26.88
2018-06-10T19:02:14.054Z,26.85
2018-06-10T19:03:51.257Z,26.94
2018-06-10T19:05:30.073Z,26.97
2018-06-10T19:07:06.935Z,27.01
2018-06-10T19:08:43.833Z,26.96
2018-06-10T19:10:20.909Z,26.87
2018-06-10T19:11:59.665Z,26.93
2018-06-10T19:13:40.575Z,26.76
2018-06-10T19:15:22.033Z,26.71
2018-06-10T19:17:00.183Z,26.52
2018-06-10T19:18:38.326Z,26.65
2018-06-10T19:20:15.469Z,26.82
2018-06-10T19:21:51.402Z,26.84
2018-06-10T19:23:28.754Z,26.58
2018-06-10T19:25:05.294Z,26.56
2018-06-10T19:26:45.414Z,26.41
2018-06-10T19:28:23.620Z,26.37
2018-06-10T19:30:03.809Z,26.10
2018-06-10T19:31:47.095Z,26.27
2018-06-10T19:33:26.586Z,26.06
2018-06-10T19:35:08.341Z,26.19
2018-06-10T19:36:47.822Z,26.20
2018-06-10T19:38:26.990Z,26.07
2018-06-10T19:40:05.414Z,25.91
2018-06-10T19:41:44.804Z,25.93
2018-06-10T19:43:21.654Z,26.06
2018-06-10T19:45:03.648Z,26.31
2018-06-10T19:46:43.371Z,26.46
2018-06-10T19:48:23.029Z,26.43
2018-06-10T19:50:02.461Z,26.32
2018-06-10T19:51:40.473Z,26.01
2018-06-10T19:53:20.287Z,26.19
2018-06-10T19:54:58.660Z,26.39
2018-06-10T19:56:34.949Z,26.40
2018-06-10T19:58:11.749Z,26.33
2018-06-10T19:59:49.156Z,26.30
2018-06-10T20:01:26.792Z,26.35
2018-06-10T20:03:02.669Z,26.34
2018-06-10T20:04:40.562Z,26.13
2018-06-10T20:06:18.949Z,26.02
2018-06-10T20:07:58.320Z,26.12
2018-06-10T20:09:37.953Z,26.00
2018-06-10T20:11:15.738Z,25.76
2018-06-10T20:12:57.321Z,25.64
2018-06-10T20:14:33.716Z,25.54
2018-06-10T20:16:11.563Z,25.59
2018-06-10T20:17:50.685Z,25.61
2018-06-10T20:19:28.157Z,25.56
2018-06-10T20:21:07.724Z,25.45
2018-06-10T20:22:45.684Z,25.30
2018-06-10T20:24:23.683Z,25.36
2018-06-10T20:26:05.198Z,25.53
2018-06-10T20:27:42.135Z,25.62
2018-06-10T20:29:20.716Z,25.62
2018-06-10T20:30:59.598Z,25.67
2018-06-10T20:32:39.207Z,25.66
2018-06-10T20:34:19.616Z,25.65
2018-06-10T20:35:58.606Z,25.56
2018-06-10T20:37:36.844Z,25.49
2018-06-10T20:39:17.244Z,25.38
2018-06-10T20:40:57.669Z,25.36
2018-06-10T20:42:36.301Z,25.23
2018-06-10T20:44:14.166Z,25.09
2018-06-10T20:45:59.927Z,24.88
2018-06-10T20:47:38.729Z,24.90
2018-06-10T20:49:15.913Z,24.95
2018-06-10T20:50:55.067Z,25.00
2018-06-10T20:52:38.191Z,25.03
2018-06-10T20:54:16.465Z,24.94
2018-06-10T20:59:42.696Z,24.90
2018-06-10T21:01:21.781Z,24.86
2018-06-10T21:02:59.477Z,24.77
2018-06-10T21:04:36.758Z,24.74
2018-06-10T21:06:13.846Z,24.81
2018-06-10T21:08:04.546Z,24.75
2018-06-10T21:09:40.784Z,24.46
2018-06-10T21:11:19.917Z,24.25
2018-06-10T21:13:00.079Z,24.17
2018-06-10T21:14:41.032Z,24.07
2018-06-10T21:16:22.370Z,23.88
2018-06-10T21:17:59.456Z,24.12
2018-06-10T21:19:36.620Z,23.99
2018-06-10T21:21:14.490Z,23.94
2018-06-10T21:22:56.049Z,23.79
2018-06-10T21:24:34.616Z,23.78
2018-06-10T21:26:12.071Z,23.60
2018-06-10T21:27:50.690Z,23.74